Port O'Connor, TX (77982)

10:50 PM CDT on April 18, 2015 (GMT -0500)
coastal plains | | Change Station
CLOSE
Current Station
Personal Weather Station
Location: Seadrift, TX
Elevation: 13 ft
Nearby Weather Stations
Active Advisory: Flood Warning Active Notice: Record Report, Public Information Statement

Elev 13 ft 28.41 °N, 96.63 °W | Updated 9 seconds ago

Clear
Clear
67.6 °F
Feels Like 67.6 °F
N
4.0
Wind Variable Wind from South
Gusts 5.0 mph

Today
High -- | Low -- °F
--% Chance of Precip.
Yesterday
High -- | Low -- °F
Precip. -- in
6:58 AM 7:53 PM
New Moon, 0% visible
Pressure 29.81 in
Visibility 10.0 miles
Clouds Clear
Dew Point 65 °F
Humidity 92%
Rainfall 0.74 in
Snow Depth Not available.
UV 0 out of 12
Pollen 3.90 out of 12
Air Quality Not available.
Flu Activity Local Activity
METAR KPKV 190338Z AUTO 19006KT 10SM CLR 19/18 A2981 RMK AO2

More Conditions Fewer Conditions

Pressure 29.81 in
Visibility 10.0 miles
Clouds Clear
Dew Point 65 °F
Humidity 92%
Rainfall 0.74 in
Snow Depth Not available.
UV 0 out of 12
Pollen 3.90 out of 12
Air Quality Not available.
Flu Activity Local Activity
METAR KPKV 190338Z AUTO 19006KT 10SM CLR 19/18 A2981 RMK AO2

More Conditions Fewer Conditions

10-Day Weather Forecast

Almanac

Astronomy

Apr. 18, 2015 Rise Set
Actual Time
Civil Twilight
Nautical Twilight
Astronomical Twilight
Moon
Length of Visible Light
Length of Day
Tomorrow will be .
, % of the Moon is Illuminated

Today's Extremes

State Highs State Lows

Community

WunderPhotos

Upload Photos

1,814,710 photos uploaded!

WunderBlogs® & News

Nearby

Air Quality

  Air Quality AQ Index Pollutant
Not available.

Snow Depth

Station Depth Elevation

Earthquake Activity

City Distance Mag. Time & Date
Minimum magnitude displayed is 2.5.

Coastal Water Temperatures

Place Temperature

Stations

Nearby Weather Stations

Station Location Temp. Windchill Dew Point Humidity Wind Precip. Elev Updated Type
                   
Flood Warning
Statement as of 9:01 PM CDT on April 18, 2015

The Flood Warning continues for the Guadalupe River near Bloomington.
* Until further notice... or until the warning is cancelled.
* At 8:00 PM Saturday the stage was 23.6 feet.
* Minor flooding is occurring and moderate flooding is forecast.
* Flood stage is 20.0 feet.
* Forecast: the river will continue rising to near 25.6 feet Monday
then begin falling but remain above flood stage until further notice.
* At 26.0 feet irrigation and oil well pumps, tank batteries, and
equipment in the lower flood plain below Victoria flood. Livestock
are cut off, may have to be fed by boat, and could drown. Homes
downstream above Highway 35 on the left bank are cut off.


Below are the latest river stages and stage forecasts:

                      fld latest forecast 6 am lst
location stg stg day time sun Mon Tue Wed Thu

Guadalupe River
Bloomington 20 23.6 Sat 08 PM 24.5 25.6 25.5 25.1 23.9


Lat... Lon 2869 9704 2869 9698 2867 9695 2857 9688
      2845 9680 2843 9685